Time;durP1;ratioP1;P1;durP2;ratioP2;P2;SDS_P1;SDS_P2;PMS_P1;PMS_P2;Temp;Humidity;BMP_temperature;BMP_pressure;BME280_temperature;BME280_humidity;BME280_pressure;Samples;Min_cycle;Max_cycle;Signal;HPM_P1;HPM_P2
2023/10/22 00:00:48;;;;;;;3.33;1.50;;;;;;;;;;5108317;28;20028;-66
2023/10/22 00:03:14;;;;;;;3.25;1.80;;;;;;;;;;5108373;28;20024;-66
2023/10/22 00:05:40;;;;;;;1.38;1.27;;;;;;;;;;5111405;28;20046;-66
2023/10/22 00:08:06;;;;;;;3.35;1.60;;;;;;;;;;5109850;28;20368;-66
2023/10/22 00:10:32;;;;;;;4.90;1.88;;;;;;;;;;5110567;28;20027;-66
2023/10/22 00:12:58;;;;;;;4.20;1.65;;;;;;;;;;5108100;28;20020;-67
2023/10/22 00:15:25;;;;;;;2.60;1.90;;;;;;;;;;5111414;28;20069;-66
2023/10/22 00:17:51;;;;;;;1.77;1.50;;;;;;;;;;5105832;28;20031;-66
2023/10/22 00:20:17;;;;;;;2.85;1.58;;;;;;;;;;5110788;28;20661;-66
2023/10/22 00:22:43;;;;;;;1.98;1.33;;;;;;;;;;5110597;28;20026;-67
2023/10/22 00:25:09;;;;;;;3.10;2.00;;;10.70;99.90;;;;;;5109731;28;20546;-66
2023/10/22 00:27:34;;;;;;;4.30;1.50;;;10.70;99.90;;;;;;5110954;28;20099;-66
2023/10/22 00:30:00;;;;;;;3.17;2.20;;;10.60;99.90;;;;;;5110176;28;20024;-66
2023/10/22 00:32:26;;;;;;;1.88;1.60;;;10.50;99.90;;;;;;5110981;28;20024;-66
2023/10/22 00:34:53;;;;;;;4.07;1.90;;;;;;;;;;5110509;28;20023;-66
2023/10/22 00:37:22;;;;;;;4.50;1.90;;;;;;;;;;5110654;28;20028;-66
2023/10/22 00:39:52;;;;;;;2.70;1.58;;;;;;;;;;5113801;28;20019;-66
2023/10/22 00:42:29;;;;;;;2.75;1.40;;;;;;;;;;5109477;28;20051;-66
2023/10/22 00:45:01;;;;;;;3.83;2.05;;;;;;;;;;5109337;28;20020;-66
2023/10/22 00:47:33;;;;;;;1.52;1.40;;;;;;;;;;5114558;28;20027;-66
2023/10/22 00:50:00;;;;;;;3.78;1.70;;;;;;;;;;5114301;27;20415;-66
2023/10/22 00:52:27;;;;;;;2.95;1.85;;;9.90;99.90;;;;;;5114298;28;20024;-66
2023/10/22 00:54:54;;;;;;;1.88;1.58;;;9.90;99.90;;;;;;5113906;28;20024;-66
2023/10/22 00:57:22;;;;;;;4.45;2.00;;;9.80;99.90;;;;;;5110128;28;20051;-66
2023/10/22 00:59:51;;;;;;;2.55;1.60;;;9.80;99.90;;;;;;5103169;28;20051;-66
2023/10/22 01:02:17;;;;;;;5.03;1.80;;;9.80;99.90;;;;;;5113493;28;20054;-66
2023/10/22 01:04:43;;;;;;;2.92;1.77;;;9.80;99.90;;;;;;5114850;28;20069;-66
2023/10/22 01:07:09;;;;;;;3.80;1.63;;;9.70;99.90;;;;;;5113685;27;20035;-66
2023/10/22 01:09:34;;;;;;;3.00;1.67;;;9.70;99.90;;;;;;5114302;28;20406;-66
2023/10/22 01:12:03;;;;;;;4.10;1.60;;;9.60;99.90;;;;;;5112646;28;20034;-66
2023/10/22 01:14:29;;;;;;;3.40;1.75;;;9.60;99.90;;;;;;5112146;27;20046;-66
2023/10/22 01:16:54;;;;;;;2.92;1.70;;;9.70;99.90;;;;;;5134103;27;20019;-65
2023/10/22 01:19:20;;;;;;;3.08;1.70;;;9.70;99.90;;;;;;5134491;27;20026;-65
2023/10/22 01:21:46;;;;;;;4.80;2.00;;;9.70;99.90;;;;;;5125447;27;20038;-66
2023/10/22 01:24:11;;;;;;;1.77;1.38;;;9.70;99.90;;;;;;5132596;27;20024;-66
2023/10/22 01:26:44;;;;;;;1.45;1.35;;;9.60;99.90;;;;;;5116229;27;20023;-66
2023/10/22 01:29:13;;;;;;;3.17;1.73;;;9.70;99.90;;;;;;5133392;27;20042;-66
2023/10/22 01:31:39;;;;;;;3.47;1.70;;;9.70;99.90;;;;;;5134773;27;20041;-66
2023/10/22 01:34:05;;;;;;;1.75;1.50;;;9.70;99.90;;;;;;5133607;27;20566;-66
2023/10/22 01:36:30;;;;;;;3.22;1.25;;;9.80;99.90;;;;;;5134599;27;20148;-65
2023/10/22 01:38:57;;;;;;;3.40;1.33;;;9.70;99.90;;;;;;5133114;27;20026;-66
2023/10/22 01:41:23;;;;;;;2.75;1.40;;;9.70;99.90;;;;;;5134315;27;20026;-66
2023/10/22 01:43:49;;;;;;;1.45;1.30;;;9.70;99.90;;;;;;5128729;27;20019;-65
2023/10/22 01:46:14;;;;;;;3.10;1.52;;;9.60;99.90;;;;;;5133269;27;20432;-66
2023/10/22 01:48:40;;;;;;;4.00;1.90;;;9.60;99.90;;;;;;5133936;27;20448;-65
2023/10/22 01:51:05;;;;;;;2.33;1.27;;;9.60;99.90;;;;;;5132321;27;20027;-66
2023/10/22 01:53:31;;;;;;;3.47;1.63;;;9.50;99.90;;;;;;5133563;27;20019;-66
2023/10/22 01:55:57;;;;;;;2.15;1.45;;;9.50;99.90;;;;;;5131284;27;20050;-66
2023/10/22 01:58:22;;;;;;;2.33;1.52;;;9.40;99.90;;;;;;5135708;27;20094;-66
2023/10/22 02:00:48;;;;;;;1.25;0.98;;;9.40;99.90;;;;;;5130215;27;20035;-66
2023/10/22 02:03:18;;;;;;;2.97;1.13;;;9.30;99.90;;;;;;5132908;27;20015;-66
2023/10/22 02:05:43;;;;;;;2.25;0.88;;;9.40;99.90;;;;;;5134147;27;20022;-66
2023/10/22 02:08:09;;;;;;;2.90;0.98;;;9.50;99.90;;;;;;5132477;27;20023;-65
2023/10/22 02:10:34;;;;;;;3.70;1.00;;;9.50;99.90;;;;;;5133629;27;20019;-66
2023/10/22 02:13:00;;;;;;;2.90;1.02;;;9.70;99.90;;;;;;5123806;27;20070;-65
2023/10/22 02:15:26;;;;;;;2.85;0.90;;;9.80;99.90;;;;;;5131443;27;20046;-65
2023/10/22 02:17:52;;;;;;;1.55;1.00;;;9.80;99.90;;;;;;5132392;27;20034;-66
2023/10/22 02:20:19;;;;;;;8.18;1.30;;;9.90;99.90;;;;;;5133379;27;20468;-66
2023/10/22 02:22:44;;;;;;;1.73;0.90;;;10.00;99.90;;;;;;5133142;27;20027;-66
2023/10/22 02:25:10;;;;;;;2.00;0.90;;;10.10;99.90;;;;;;5133030;27;20023;-66
2023/10/22 02:27:35;;;;;;;2.90;0.88;;;10.20;99.90;;;;;;5132891;27;20359;-66
2023/10/22 02:30:01;;;;;;;1.40;0.80;;;10.30;99.90;;;;;;5132606;27;20023;-66
2023/10/22 02:32:26;;;;;;;2.63;1.38;;;10.40;99.90;;;;;;5126743;27;20472;-66
2023/10/22 02:34:52;;;;;;;1.58;0.80;;;10.50;99.90;;;;;;5127111;27;20054;-66
2023/10/22 02:37:19;;;;;;;2.13;0.80;;;10.60;99.90;;;;;;5133221;27;20030;-66
2023/10/22 02:39:45;;;;;;;2.28;1.08;;;10.70;99.90;;;;;;5133158;27;20023;-66
2023/10/22 02:42:11;;;;;;;2.60;0.90;;;10.80;99.90;;;;;;5127884;27;20062;-66
2023/10/22 02:44:36;;;;;;;2.75;1.05;;;10.80;99.90;;;;;;5132355;27;20046;-65
2023/10/22 02:47:02;;;;;;;1.17;0.90;;;10.80;99.90;;;;;;5127643;27;20041;-66
2023/10/22 02:49:30;;;;;;;1.00;0.80;;;10.80;99.90;;;;;;5136893;27;20034;-66
2023/10/22 02:51:55;;;;;;;2.80;0.80;;;10.80;99.90;;;;;;5131027;27;20031;-66
2023/10/22 02:54:21;;;;;;;2.33;1.00;;;10.70;99.90;;;;;;5127815;27;20030;-66
2023/10/22 02:56:47;;;;;;;1.70;1.02;;;10.70;99.90;;;;;;5132490;27;20023;-66
2023/10/22 02:59:13;;;;;;;4.72;1.10;;;10.70;99.90;;;;;;5131504;27;20030;-66
2023/10/22 03:01:38;;;;;;;2.45;1.10;;;10.70;99.90;;;;;;5132427;27;20027;-67
2023/10/22 03:04:04;;;;;;;2.45;1.20;;;10.80;99.90;;;;;;5131203;27;20023;-66
2023/10/22 03:06:29;;;;;;;3.30;1.30;;;10.70;99.90;;;;;;5133902;27;20099;-66
2023/10/22 03:08:55;;;;;;;0.70;0.70;;;10.80;99.90;;;;;;5131582;27;20023;-66
2023/10/22 03:11:21;;;;;;;1.30;1.13;;;10.80;99.90;;;;;;5131481;27;20026;-66
2023/10/22 03:13:48;;;;;;;2.03;1.00;;;10.70;99.90;;;;;;5131671;27;20027;-66
2023/10/22 03:16:17;;;;;;;4.38;1.30;;;10.70;99.90;;;;;;5132273;27;20018;-66
2023/10/22 03:18:44;;;;;;;3.33;0.93;;;10.70;99.90;;;;;;5127779;27;20452;-66
2023/10/22 03:21:18;;;;;;;3.70;1.10;;;10.70;99.90;;;;;;5123403;27;20077;-66
2023/10/22 03:23:44;;;;;;;4.43;1.10;;;10.70;99.90;;;;;;5124671;27;20024;-66
2023/10/22 03:26:13;;;;;;;2.30;1.30;;;10.70;99.90;;;;;;5131504;27;20080;-66
2023/10/22 03:28:39;;;;;;;2.92;1.15;;;10.70;99.90;;;;;;5130744;27;20026;-66
2023/10/22 03:31:05;;;;;;;3.35;1.33;;;10.70;99.90;;;;;;5130480;27;20424;-66
2023/10/22 03:33:31;;;;;;;2.97;1.02;;;10.80;99.90;;;;;;5131980;27;20131;-66
2023/10/22 03:35:58;;;;;;;4.30;1.13;;;10.80;99.90;;;;;;5131345;27;20022;-65
2023/10/22 03:38:24;;;;;;;3.80;1.10;;;10.80;99.90;;;;;;5131608;27;20197;-65
2023/10/22 03:40:58;;;;;;;4.45;1.38;;;10.90;99.90;;;;;;5132017;27;20102;-66
2023/10/22 03:43:28;;;;;;;1.90;1.05;;;10.80;99.90;;;;;;5124996;27;20027;-66
2023/10/22 03:45:58;;;;;;;2.53;1.17;;;10.80;99.90;;;;;;5131237;27;20054;-66
2023/10/22 03:48:24;;;;;;;3.45;1.48;;;10.80;99.90;;;;;;5130493;27;20479;-66
2023/10/22 03:50:50;;;;;;;6.93;1.40;;;10.80;99.90;;;;;;5131910;27;20033;-66
2023/10/22 03:53:16;;;;;;;1.98;1.20;;;10.80;99.90;;;;;;5130961;27;20101;-66
2023/10/22 03:55:41;;;;;;;3.53;1.50;;;10.90;99.90;;;;;;5131771;27;20026;-66
2023/10/22 03:58:07;;;;;;;5.40;1.33;;;10.90;99.90;;;;;;5129857;27;20019;-66
2023/10/22 04:00:33;;;;;;;3.22;1.40;;;10.90;99.90;;;;;;5131103;28;20035;-66
2023/10/22 04:03:00;;;;;;;2.15;1.45;;;10.90;99.90;;;;;;5129410;28;20027;-66
2023/10/22 04:05:25;;;;;;;3.72;1.40;;;11.00;99.90;;;;;;5131705;28;20032;-66
2023/10/22 04:07:51;;;;;;;3.75;1.30;;;11.00;99.90;;;;;;5130779;28;20494;-66
2023/10/22 04:10:17;;;;;;;3.08;1.65;;;11.10;99.90;;;;;;5131723;28;20556;-66
2023/10/22 04:12:42;;;;;;;2.10;1.13;;;11.10;99.90;;;;;;5131198;27;20535;-66
2023/10/22 04:15:08;;;;;;;3.03;1.38;;;11.10;99.90;;;;;;5133668;27;20539;-66
2023/10/22 04:17:34;;;;;;;2.45;1.23;;;11.10;99.90;;;;;;5134914;27;20030;-66
2023/10/22 04:20:00;;;;;;;3.85;1.17;;;11.10;99.90;;;;;;5135164;27;20366;-66
2023/10/22 04:22:26;;;;;;;2.20;1.15;;;11.00;99.90;;;;;;5135603;27;20027;-66
2023/10/22 04:24:52;;;;;;;3.97;1.20;;;11.00;99.90;;;;;;5135422;27;20099;-66
2023/10/22 04:27:18;;;;;;;1.40;0.80;;;10.90;99.90;;;;;;5135029;27;20119;-67
2023/10/22 04:29:46;;;;;;;1.58;0.88;;;10.90;99.90;;;;;;5135800;27;20391;-66
2023/10/22 04:32:12;;;;;;;3.97;1.42;;;10.90;99.90;;;;;;5129720;27;20047;-66
2023/10/22 04:34:38;;;;;;;6.05;1.27;;;10.90;99.90;;;;;;5135385;27;20370;-66
2023/10/22 04:37:04;;;;;;;2.10;1.17;;;10.80;99.90;;;;;;5134856;27;20019;-66
2023/10/22 04:39:30;;;;;;;3.10;1.23;;;10.80;99.90;;;;;;5133576;27;20023;-66
2023/10/22 04:41:56;;;;;;;3.22;1.30;;;10.80;99.90;;;;;;5135011;27;20026;-66
2023/10/22 04:44:22;;;;;;;1.88;1.25;;;10.80;99.90;;;;;;5134346;27;20493;-66
2023/10/22 04:46:48;;;;;;;1.10;1.02;;;10.80;99.90;;;;;;5135691;27;20068;-66
2023/10/22 04:49:13;;;;;;;4.43;1.38;;;10.70;99.90;;;;;;5134216;27;20059;-66
2023/10/22 04:51:40;;;;;;;3.47;1.30;;;10.80;99.90;;;;;;5135982;27;20058;-66
2023/10/22 04:54:05;;;;;;;3.28;1.10;;;10.70;99.90;;;;;;5133776;27;20027;-66
2023/10/22 04:56:32;;;;;;;3.10;1.10;;;10.60;99.90;;;;;;5135400;27;20027;-65
2023/10/22 04:58:57;;;;;;;3.72;1.40;;;10.70;99.90;;;;;;5133954;27;20023;-66
2023/10/22 05:01:23;;;;;;;2.08;1.10;;;10.60;99.90;;;;;;5132634;27;20408;-66
2023/10/22 05:03:49;;;;;;;1.98;1.05;;;10.50;99.90;;;;;;5134062;27;20027;-66
2023/10/22 05:06:14;;;;;;;2.72;1.10;;;10.50;99.90;;;;;;5134760;27;20011;-66
2023/10/22 05:08:40;;;;;;;2.22;1.10;;;10.40;99.90;;;;;;5134654;27;20098;-66
2023/10/22 05:11:15;;;;;;;3.30;1.13;;;10.30;99.90;;;;;;5134108;27;20076;-66
2023/10/22 05:13:40;;;;;;;5.53;1.10;;;10.30;99.90;;;;;;5122488;27;20040;-65
2023/10/22 05:16:07;;;;;;;2.40;0.93;;;10.30;99.90;;;;;;5133833;27;20015;-66
2023/10/22 05:18:33;;;;;;;2.30;1.10;;;10.40;99.90;;;;;;5134528;27;20023;-66
2023/10/22 05:21:06;;;;;;;3.83;0.95;;;10.50;99.90;;;;;;5116081;27;20367;-66
2023/10/22 05:23:32;;;;;;;7.40;1.48;;;10.40;99.90;;;;;;5134353;27;20059;-66
2023/10/22 05:26:08;;;;;;;4.50;1.30;;;10.30;99.90;;;;;;5133871;27;20023;-66
2023/10/22 05:28:35;;;;;;;3.75;1.10;;;10.30;99.90;;;;;;5134096;27;20031;-66
2023/10/22 05:31:00;;;;;;;3.08;0.95;;;10.20;99.90;;;;;;5132186;27;20030;-65
2023/10/22 05:33:26;;;;;;;5.05;1.02;;;10.10;99.90;;;;;;5134209;27;20376;-65
2023/10/22 05:35:52;;;;;;;2.22;1.30;;;10.00;99.90;;;;;;5132997;27;20500;-65
2023/10/22 05:38:17;;;;;;;2.25;0.93;;;10.10;99.90;;;;;;5133576;27;20027;-67
2023/10/22 05:40:43;;;;;;;5.32;1.30;;;10.00;99.90;;;;;;5134377;27;20068;-66
2023/10/22 05:43:09;;;;;;;3.05;1.08;;;9.90;99.90;;;;;;5133090;27;20019;-66
2023/10/22 05:45:34;;;;;;;2.80;1.33;;;9.80;99.90;;;;;;5128959;27;20084;-66
2023/10/22 05:48:00;;;;;;;5.95;1.17;;;9.90;99.90;;;;;;5131182;27;20097;-66
2023/10/22 05:50:26;;;;;;;5.32;0.95;;;9.90;99.90;;;;;;5134319;27;20398;-65
2023/10/22 05:52:52;;;;;;;5.45;0.88;;;9.90;99.90;;;;;;5132766;27;20424;-66
2023/10/22 05:55:18;;;;;;;4.80;1.10;;;10.00;99.90;;;;;;5132073;27;20102;-66
2023/10/22 05:57:45;;;;;;;4.63;1.00;;;10.00;99.90;;;;;;5131565;27;20018;-66
2023/10/22 06:00:14;;;;;;;3.40;0.80;;;10.10;99.90;;;;;;5131656;27;20463;-65
2023/10/22 06:02:40;;;;;;;3.60;0.90;;;10.10;99.90;;;;;;5132814;27;20452;-66
2023/10/22 06:05:08;;;;;;;4.00;1.00;;;10.20;99.90;;;;;;5132829;27;20015;-66
2023/10/22 06:07:34;;;;;;;4.65;1.13;;;10.20;99.90;;;;;;5132995;27;20027;-66
2023/10/22 06:09:59;;;;;;;2.80;1.10;;;10.30;99.90;;;;;;5129611;27;20015;-66
2023/10/22 06:12:25;;;;;;;3.83;1.10;;;10.30;99.90;;;;;;5125686;27;20027;-66
2023/10/22 06:14:51;;;;;;;4.40;1.08;;;10.30;99.90;;;;;;5120631;27;20052;-66
2023/10/22 06:17:16;;;;;;;5.28;1.00;;;10.30;99.90;;;;;;5117788;27;20371;-67
2023/10/22 06:19:43;;;;;;;5.78;1.20;;;10.20;99.90;;;;;;5116505;27;20080;-67
2023/10/22 06:22:09;;;;;;;7.55;1.00;;;10.30;99.90;;;;;;5116294;27;20050;-68
2023/10/22 06:24:34;;;;;;;4.80;1.20;;;10.30;99.90;;;;;;5118982;27;20032;-67
2023/10/22 06:27:00;;;;;;;3.95;1.42;;;10.40;99.90;;;;;;5115845;27;20027;-68
2023/10/22 06:29:26;;;;;;;2.00;0.80;;;10.30;99.90;;;;;;5117674;27;20026;-68
2023/10/22 06:31:51;;;;;;;8.77;1.10;;;10.40;99.90;;;;;;5112646;27;20085;-68
2023/10/22 06:34:17;;;;;;;7.10;1.35;;;10.40;99.90;;;;;;5112022;27;20034;-68
2023/10/22 06:36:43;;;;;;;5.10;1.77;;;10.40;99.90;;;;;;5118228;27;20031;-68
2023/10/22 06:39:08;;;;;;;3.00;0.80;;;10.40;99.90;;;;;;5119653;27;20020;-68
2023/10/22 06:41:34;;;;;;;3.03;0.80;;;10.40;99.90;;;;;;5119462;27;20031;-68
2023/10/22 06:44:00;;;;;;;5.40;1.00;;;10.40;99.90;;;;;;5116546;27;20022;-69
2023/10/22 06:46:25;;;;;;;5.38;0.80;;;10.30;99.90;;;;;;5117760;27;20027;-75
2023/10/22 06:48:51;;;;;;;6.90;1.10;;;10.30;99.90;;;;;;5115768;27;20031;-79
2023/10/22 06:51:17;;;;;;;10.63;1.13;;;10.30;99.90;;;;;;5103343;27;20089;-77
2023/10/22 06:53:47;;;;;;;3.85;0.70;;;10.30;99.90;;;;;;5115864;27;20098;-75
2023/10/22 06:56:12;;;;;;;8.98;1.98;;;10.30;99.90;;;;;;5114104;27;20035;-74
2023/10/22 06:58:38;;;;;;;4.22;1.52;;;10.30;99.90;;;;;;5109589;27;20027;-77
2023/10/22 07:01:11;;;;;;;7.55;1.20;;;10.40;99.90;;;;;;5117895;27;20451;-77
2023/10/22 07:03:41;;;;;;;7.13;1.10;;;10.50;99.90;;;;;;5108131;27;20027;-78
2023/10/22 07:06:07;;;;;;;5.32;1.05;;;10.60;99.90;;;;;;5116999;27;20040;-76
2023/10/22 07:08:32;;;;;;;5.97;0.90;;;10.70;99.90;;;;;;5118561;27;20024;-74
2023/10/22 07:10:58;;;;;;;3.05;0.77;;;10.80;99.90;;;;;;5117027;27;20110;-81
2023/10/22 07:13:25;;;;;;;5.35;1.10;;;10.90;99.90;;;;;;5118557;27;20113;-78
2023/10/22 07:15:51;;;;;;;5.38;1.15;;;11.10;99.90;;;;;;5105669;28;20039;-77
2023/10/22 07:18:17;;;;;;;4.10;0.93;;;11.20;99.90;;;;;;5108897;28;20092;-78
2023/10/22 07:20:43;;;;;;;3.40;1.30;;;11.30;99.90;;;;;;5106975;28;20133;-76
2023/10/22 07:23:09;;;;;;;4.40;0.70;;;11.40;99.90;;;;;;5115525;27;20041;-74
2023/10/22 07:25:36;;;;;;;6.20;1.25;;;11.40;99.90;;;;;;5082885;28;20023;-68
2023/10/22 07:28:02;;;;;;;3.80;0.95;;;11.50;99.90;;;;;;5108640;28;20023;-68
2023/10/22 07:30:29;;;;;;;5.43;1.25;;;11.70;99.90;;;;;;5108449;27;20137;-68
2023/10/22 07:32:55;;;;;;;2.90;0.95;;;11.80;99.90;;;;;;5101302;28;20706;-68
2023/10/22 07:35:21;;;;;;;3.88;0.90;;;11.80;99.90;;;;;;5103597;28;20035;-68
2023/10/22 07:37:47;;;;;;;4.22;0.80;;;11.90;99.90;;;;;;5097584;28;20024;-68
2023/10/22 07:40:13;;;;;;;2.60;0.63;;;11.90;99.90;;;;;;5106899;27;20352;-68
2023/10/22 07:42:42;;;;;;;4.30;1.35;;;12.00;99.90;;;;;;5106435;28;20027;-67
2023/10/22 07:45:08;;;;;;;3.17;1.10;;;12.00;99.90;;;;;;5106769;28;20034;-67
2023/10/22 07:47:35;;;;;;;5.05;1.00;;;12.10;99.90;;;;;;5110962;27;20023;-69
2023/10/22 07:50:05;;;;;;;5.85;1.00;;;12.20;99.90;;;;;;5109408;28;20464;-68
2023/10/22 07:52:38;;;;;;;5.47;1.20;;;12.20;99.90;;;;;;5099892;28;20500;-68
2023/10/22 07:55:05;;;;;;;3.50;1.10;;;12.30;99.90;;;;;;5098994;28;20527;-68
2023/10/22 07:57:32;;;;;;;3.50;0.90;;;12.30;99.90;;;;;;5107946;27;20035;-67
2023/10/22 07:59:57;;;;;;;3.95;1.33;;;12.40;99.90;;;;;;5110887;28;20110;-69
2023/10/22 08:02:23;;;;;;;7.75;2.42;;;12.50;99.90;;;;;;5105470;28;20110;-68
2023/10/22 08:04:53;;;;;;;4.53;1.45;;;;;;;;;;5107914;28;20052;-68
2023/10/22 08:07:21;;;;;;;7.20;0.98;;;;;;;;;;5092594;28;20480;-68
2023/10/22 08:09:47;;;;;;;4.35;1.05;;;;;;;;;;5107692;28;20051;-68
2023/10/22 08:12:13;;;;;;;6.22;1.20;;;;;;;;;;5105724;28;20043;-69
2023/10/22 08:14:39;;;;;;;5.45;1.42;;;;;;;;;;5117900;27;20045;-68
2023/10/22 08:17:05;;;;;;;5.68;1.10;;;;;;;;;;5125737;28;20061;-68
2023/10/22 08:19:31;;;;;;;2.08;0.68;;;;;;;;;;5105819;28;20031;-68
2023/10/22 08:21:57;;;;;;;3.38;0.70;;;;;;;;;;5125316;28;20035;-68
2023/10/22 08:24:23;;;;;;;2.33;0.90;;;;;;;;;;5128228;28;20011;-68
2023/10/22 08:26:49;;;;;;;5.90;1.50;;;;;;;;;;5126941;28;20023;-68
2023/10/22 08:29:15;;;;;;;4.18;1.08;;;;;;;;;;5130717;27;20019;-67
2023/10/22 08:31:41;;;;;;;5.57;1.10;;;;;;;;;;5125138;28;20083;-66
2023/10/22 08:34:07;;;;;;;2.35;0.90;;;;;;;;;;5124795;27;20054;-66
2023/10/22 08:36:35;;;;;;;4.85;0.80;;;;;;;;;;5126996;28;20050;-67
2023/10/22 08:39:01;;;;;;;3.78;1.45;;;;;;;;;;5127921;28;20367;-67
2023/10/22 08:41:32;;;;;;;2.53;0.70;;;;;;;;;;5125079;28;20054;-67
2023/10/22 08:43:58;;;;;;;4.18;1.00;;;;;;;;;;5127254;28;20482;-67
2023/10/22 08:46:24;;;;;;;3.45;0.95;;;;;;;;;;5127138;27;20007;-67
2023/10/22 08:48:50;;;;;;;6.40;0.93;;;;;;;;;;5127276;28;20027;-67
2023/10/22 08:51:20;;;;;;;5.05;1.35;;;14.10;99.90;;;;;;5126886;27;20027;-67
2023/10/22 08:53:46;;;;;;;3.42;1.00;;;14.20;99.90;;;;;;5127390;28;20031;-67
2023/10/22 08:56:11;;;;;;;4.35;1.17;;;14.30;99.90;;;;;;5122873;28;20035;-67
2023/10/22 08:58:37;;;;;;;5.07;1.17;;;14.30;99.90;;;;;;5130031;28;20095;-68
2023/10/22 09:01:03;;;;;;;5.78;1.02;;;14.40;99.90;;;;;;5133634;27;20168;-68
2023/10/22 09:03:31;;;;;;;3.50;1.20;;;14.40;99.90;;;;;;5134748;27;20019;-68
2023/10/22 09:05:57;;;;;;;4.72;1.30;;;14.50;99.90;;;;;;5133875;27;20478;-68
2023/10/22 09:08:42;;;;;;;8.52;1.00;;;14.50;99.90;;;;;;5133352;27;20027;-68
2023/10/22 09:11:12;;;;;;;6.60;1.23;;;14.70;99.90;;;;;;5132734;27;20054;-67
2023/10/22 09:13:38;;;;;;;6.45;1.00;;;14.70;99.90;;;;;;5126970;27;20087;-67
2023/10/22 09:16:04;;;;;;;5.22;1.23;;;14.80;99.90;;;;;;5133680;27;20448;-67
2023/10/22 09:18:32;;;;;;;5.80;1.20;;;14.90;99.90;;;;;;5136395;27;20019;-70
2023/10/22 09:21:06;;;;;;;4.05;0.98;;;14.80;99.90;;;;;;5130051;27;20367;-71
2023/10/22 09:23:32;;;;;;;3.10;1.20;;;14.90;99.90;;;;;;5131093;27;20198;-71
2023/10/22 09:25:58;;;;;;;4.32;0.80;;;14.90;99.90;;;;;;5131943;27;20102;-73
2023/10/22 09:28:26;;;;;;;3.60;1.30;;;15.00;99.90;;;;;;5132082;27;20015;-69
2023/10/22 09:31:03;;;;;;;4.38;0.90;;;15.10;99.90;;;;;;5132412;27;20019;-73
2023/10/22 09:33:33;;;;;;;8.18;1.33;;;15.10;99.90;;;;;;5132112;27;20019;-75
2023/10/22 09:36:09;;;;;;;6.18;1.23;;;15.20;99.90;;;;;;5132431;27;20022;-74
2023/10/22 09:38:46;;;;;;;4.63;1.30;;;15.20;99.90;;;;;;5132515;27;20083;-74
2023/10/22 09:41:25;;;;;;;4.82;1.00;;;15.30;99.90;;;;;;5125346;27;20035;-74
2023/10/22 09:43:52;;;;;;;6.63;1.37;;;15.40;99.90;;;;;;5124842;27;20103;-69
2023/10/22 09:46:18;;;;;;;4.10;1.50;;;15.30;99.90;;;;;;5124561;27;20065;-72
2023/10/22 09:48:46;;;;;;;2.78;1.20;;;;;;;;;;5126686;27;20080;-72
2023/10/22 09:51:14;;;;;;;2.67;0.98;;;;;;;;;;5128565;27;20023;-69
2023/10/22 09:53:43;;;;;;;3.30;1.10;;;;;;;;;;5133509;27;20023;-67
2023/10/22 09:56:11;;;;;;;6.78;1.10;;;;;;;;;;5132784;27;20541;-67
2023/10/22 09:58:42;;;;;;;4.55;1.40;;;;;;;;;;5124232;27;20031;-68
2023/10/22 10:01:09;;;;;;;4.35;1.08;;;;;;;;;;5132073;27;20026;-67
2023/10/22 10:03:36;;;;;;;4.88;0.90;;;;;;;;;;5124483;27;20102;-69
2023/10/22 10:06:04;;;;;;;4.57;0.95;;;;;;;;;;5126466;27;20396;-68
2023/10/22 10:08:30;;;;;;;6.75;1.23;;;;;;;;;;5123536;27;20030;-68
2023/10/22 10:10:55;;;;;;;2.42;0.88;;;;;;;;;;5126930;27;20028;-71
2023/10/22 10:13:21;;;;;;;4.22;1.30;;;;;;;;;;5125188;27;20479;-77
2023/10/22 10:15:58;;;;;;;4.78;1.55;;;;;;;;;;5133898;27;20054;-77
2023/10/22 10:18:44;;;;;;;4.32;0.82;;;;;;;;;;5133702;27;20087;-77
2023/10/22 10:21:29;;;;;;;4.20;1.05;;;;;;;;;;5132964;27;20031;-70
2023/10/22 10:24:13;;;;;;;5.35;1.58;;;;;;;;;;5132327;27;20029;-71
2023/10/22 10:26:39;;;;;;;5.75;1.38;;;;;;;;;;5132340;27;20032;-75
2023/10/22 10:29:05;;;;;;;6.68;1.30;;;;;;;;;;5132219;27;20018;-71
2023/10/22 10:31:31;;;;;;;3.97;1.15;;;;;;;;;;5126968;27;20100;-71
2023/10/22 10:34:03;;;;;;;6.38;1.33;;;;;;;;;;5132770;27;20046;-73
2023/10/22 10:36:32;;;;;;;4.75;1.13;;;;;;;;;;5133761;27;20015;-72
2023/10/22 10:39:16;;;;;;;4.85;1.02;;;;;;;;;;5131879;27;20020;-72
2023/10/22 10:41:52;;;;;;;7.28;1.42;;;;;;;;;;5133183;27;20502;-71
2023/10/22 10:44:18;;;;;;;4.80;1.15;;;;;;;;;;5133404;27;20019;-72
2023/10/22 10:46:44;;;;;;;6.57;1.38;;;;;;;;;;5132038;27;20023;-67
2023/10/22 10:49:10;;;;;;;5.45;1.50;;;;;;;;;;5132322;27;20055;-66
2023/10/22 10:51:36;;;;;;;5.50;1.25;;;;;;;;;;5133677;27;20015;-66
2023/10/22 10:54:02;;;;;;;5.03;1.05;;;;;;;;;;5132348;27;20020;-66
2023/10/22 10:56:46;;;;;;;5.90;1.20;;;;;;;;;;5127339;27;20023;-66
2023/10/22 10:59:24;;;;;;;6.97;1.90;;;;;;;;;;5127219;27;20024;-66
2023/10/22 11:02:10;;;;;;;2.47;0.95;;;;;;;;;;5128944;27;20354;-66
2023/10/22 11:04:36;;;;;;;7.10;1.80;;;;;;;;;;5133581;27;20035;-66
2023/10/22 11:07:03;;;;;;;5.93;1.23;;;;;;;;;;5124828;27;20019;-66
2023/10/22 11:09:31;;;;;;;3.58;1.00;;;;;;;;;;5128164;27;20086;-66
2023/10/22 11:11:58;;;;;;;4.93;1.08;;;;;;;;;;5125536;27;20031;-66
2023/10/22 11:14:25;;;;;;;5.03;1.30;;;;;;;;;;5132462;27;20043;-66
2023/10/22 11:16:56;;;;;;;5.22;1.92;;;;;;;;;;5133143;27;20195;-66
2023/10/22 11:19:23;;;;;;;4.10;1.02;;;;;;;;;;5130622;27;20030;-66
2023/10/22 11:21:49;;;;;;;4.13;1.15;;;;;;;;;;5132535;27;20441;-66
2023/10/22 11:24:16;;;;;;;4.07;1.33;;;;;;;;;;5128512;27;20020;-67
2023/10/22 11:26:42;;;;;;;7.07;1.27;;;;;;;;;;5126217;27;20064;-67
2023/10/22 11:29:09;;;;;;;3.03;1.15;;;;;;;;;;5127959;27;20013;-67
2023/10/22 11:31:35;;;;;;;2.60;1.02;;;;;;;;;;5127355;27;20483;-67
2023/10/22 11:34:14;;;;;;;5.32;1.13;;;;;;;;;;5129836;27;20027;-68
2023/10/22 11:36:40;;;;;;;5.80;1.30;;;;;;;;;;5127141;27;20024;-66
2023/10/22 11:39:26;;;;;;;3.88;1.20;;;;;;;;;;5121547;27;20026;-67
2023/10/22 11:41:59;;;;;;;7.07;1.40;;;;;;;;;;5130898;27;20042;-67
2023/10/22 11:44:35;;;;;;;4.28;1.38;;;;;;;;;;5132379;27;20022;-67
2023/10/22 11:47:21;;;;;;;4.82;1.23;;;;;;;;;;5132054;27;20230;-67
2023/10/22 11:49:47;;;;;;;5.70;1.38;;;;;;;;;;5132574;27;20146;-67
2023/10/22 11:52:39;;;;;;;4.32;1.45;;;;;;;;;;5129703;27;20106;-67
2023/10/22 11:55:09;;;;;;;7.90;1.60;;;;;;;;;;5116596;27;20027;-67
2023/10/22 11:57:41;;;;;;;6.30;1.30;;;;;;;;;;5131875;27;20019;-67
2023/10/22 12:00:12;;;;;;;6.90;1.40;;;;;;;;;;5131740;27;20019;-67
2023/10/22 12:02:42;;;;;;;3.67;0.90;;;;;;;;;;5129448;28;20011;-67
2023/10/22 12:05:09;;;;;;;;;;;;;;;;;;5122348;28;20050;-67
2023/10/22 12:07:35;;;;;;;4.63;1.35;;;;;;;;;;5129715;28;19903;-67
2023/10/22 12:10:01;;;;;;;3.22;1.30;;;;;;;;;;5131693;28;20026;-67
2023/10/22 12:12:27;;;;;;;5.13;1.58;;;;;;;;;;5132017;28;20023;-67
2023/10/22 12:14:53;;;;;;;6.30;2.05;;;;;;;;;;5131913;28;20474;-67
2023/10/22 12:17:18;;;;;;;5.03;1.67;;;;;;;;;;5132431;28;20016;-67
2023/10/22 12:19:44;;;;;;;6.57;1.33;;;;;;;;;;5132367;28;20475;-65
2023/10/22 12:22:10;;;;;;;3.28;1.23;;;;;;;;;;5131033;28;20027;-67
2023/10/22 12:24:37;;;;;;;3.05;0.90;;;;;;;;;;5130182;28;20076;-67
2023/10/22 12:27:03;;;;;;;3.20;1.15;;;;;;;;;;5130982;28;20015;-67
2023/10/22 12:29:29;;;;;;;3.08;1.10;;;;;;;;;;5132185;28;20355;-67
2023/10/22 12:31:54;;;;;;;3.50;1.08;;;;;;;;;;5130115;28;20043;-67
2023/10/22 12:34:21;;;;;;;4.03;0.85;;;;;;;;;;5131776;27;20030;-67
2023/10/22 12:36:46;;;;;;;4.22;1.20;;;;;;;;;;5136346;27;20031;-67
2023/10/22 12:39:13;;;;;;;3.35;1.15;;;;;;;;;;5133855;27;20203;-67
2023/10/22 12:41:39;;;;;;;4.55;1.00;;;;;;;;;;5130185;27;20038;-67
2023/10/22 12:44:05;;;;;;;4.35;1.20;;;;;;;;;;5135170;27;20019;-67
2023/10/22 12:46:31;;;;;;;3.20;1.30;;;;;;;;;;5133942;27;20109;-67
2023/10/22 12:48:57;;;;;;;2.65;1.20;;;;;;;;;;5127392;27;20035;-67
2023/10/22 12:51:23;;;;;;;3.15;1.10;;;;;;;;;;5125669;27;20022;-67
2023/10/22 12:53:49;;;;;;;2.80;1.30;;;;;;;;;;5135392;27;20015;-67
2023/10/22 12:56:18;;;;;;;3.13;0.85;;;;;;;;;;5132765;27;20103;-67
2023/10/22 12:58:46;;;;;;;3.50;1.30;;;;;;;;;;5129055;27;20360;-67
2023/10/22 13:01:12;;;;;;;3.17;1.20;;;;;;;;;;5134031;27;20042;-67
2023/10/22 13:03:38;;;;;;;3.40;1.38;;;;;;;;;;5134946;27;20046;-67
2023/10/22 13:06:08;;;;;;;3.05;1.08;;;;;;;;;;5134871;27;20104;-67
2023/10/22 13:08:34;;;;;;;4.25;1.15;;;;;;;;;;5134952;27;20015;-67
2023/10/22 13:11:00;;;;;;;3.03;1.13;;;;;;;;;;5134628;27;20091;-67
2023/10/22 13:13:26;;;;;;;4.38;1.48;;;;;;;;;;5134520;27;20443;-67
2023/10/22 13:15:52;;;;;;;5.30;1.25;;;;;;;;;;5134203;27;20082;-67
2023/10/22 13:18:18;;;;;;;4.43;1.58;;;;;;;;;;5133013;27;20023;-67
2023/10/22 13:20:44;;;;;;;4.53;1.33;;;;;;;;;;5133661;27;20383;-67
2023/10/22 13:23:13;;;;;;;5.13;1.60;;;;;;;;;;5131832;27;20023;-67
2023/10/22 13:25:39;;;;;;;4.55;1.10;;;;;;;;;;5134205;27;20083;-67
2023/10/22 13:28:06;;;;;;;2.85;1.13;;;;;;;;;;5133547;27;20439;-68
2023/10/22 13:30:32;;;;;;;4.20;1.45;;;;;;;;;;5135202;27;20483;-67